EPGD/GDN METAR and TAF weather

Enter ICAO airport designator
Station Type Date Time Source
EPGD METAR 2018/04/21 21:00 UTC NOAA

EPGD 212100Z 28010KT CAVOK 09/03 Q1016


Station Type Date Time Source
EPGD Decoded METAR 2018/04/21 21:00 UTC NOAA

Gdansk-Rebiechowo, Poland (EPGD) 54-23N 018-28E 138M
Apr 21, 2018 - 05:00 PM EDT / 2018.04.21 2100 UTC
Wind: from the W (280 degrees) at 12 MPH (10 KT):0
Visibility: greater than 7 mile(s):0
Temperature: 48 F (9 C)
Dew Point: 37 F (3 C)
Relative Humidity: 66%
Pressure (altimeter): 30.00 in. Hg (1016 hPa)
ob: EPGD 212100Z 28010KT CAVOK 09/03 Q1016
cycle: 21

Station Type Date Time Source
EPGD TAF 2018/04/21 18:33 UTC NOAA

TAF TAF EPGD 211730Z 2118/2218 29015KT CAVOK
BECMG 2212/2214 04005KT


Example: see airport list